createdAt,value
2019-05-25T00:01:42.381Z,10.53
2019-05-25T00:04:12.076Z,10.45
2019-05-25T00:06:41.703Z,36.83
2019-05-25T00:09:11.462Z,12.13
2019-05-25T00:11:41.052Z,10.38
2019-05-25T00:14:10.856Z,11.33
2019-05-25T00:16:40.473Z,11.10
2019-05-25T00:19:10.038Z,11.18
2019-05-25T00:21:39.600Z,11.55
2019-05-25T00:24:12.598Z,11.28
2019-05-25T00:26:40.672Z,11.57
2019-05-25T00:29:10.516Z,10.40
2019-05-25T00:31:40.183Z,10.65
2019-05-25T00:34:09.828Z,11.15
2019-05-25T00:36:39.392Z,10.90
2019-05-25T00:39:14.795Z,10.48
2019-05-25T00:41:44.420Z,11.30
2019-05-25T00:44:14.190Z,11.25
2019-05-25T00:46:43.703Z,12.90
2019-05-25T00:49:13.364Z,12.47
2019-05-25T00:51:42.869Z,12.07
2019-05-25T00:54:27.091Z,12.25
2019-05-25T00:56:43.782Z,12.40
2019-05-25T00:59:13.437Z,14.18
2019-05-25T01:01:43.195Z,14.85
2019-05-25T01:04:14.320Z,14.20
2019-05-25T01:06:43.983Z,13.93
2019-05-25T01:09:13.507Z,14.23
2019-05-25T01:11:43.175Z,14.28
2019-05-25T01:14:14.093Z,14.07
2019-05-25T01:16:43.773Z,16.32
2019-05-25T01:19:15.161Z,13.90
2019-05-25T01:21:44.821Z,14.45
2019-05-25T01:24:14.383Z,15.10
2019-05-25T01:26:44.041Z,14.55
2019-05-25T01:29:13.474Z,14.80
2019-05-25T01:31:43.099Z,14.45
2019-05-25T01:34:12.605Z,16.97
2019-05-25T01:36:42.189Z,18.40
2019-05-25T01:39:11.697Z,14.90
2019-05-25T01:41:41.327Z,14.25
2019-05-25T01:44:11.130Z,13.10
2019-05-25T01:46:40.639Z,14.83
2019-05-25T01:49:13.097Z,15.95
2019-05-25T01:51:43.749Z,14.18
2019-05-25T01:54:13.197Z,17.20
2019-05-25T01:56:42.754Z,35.63
2019-05-25T01:59:12.151Z,57.20
2019-05-25T02:01:41.717Z,38.73
2019-05-25T02:04:11.530Z,26.55
2019-05-25T02:06:41.159Z,19.67
2019-05-25T02:09:10.955Z,16.42
2019-05-25T02:11:40.639Z,18.07
2019-05-25T02:14:10.279Z,16.23
2019-05-25T02:16:41.563Z,13.38
2019-05-25T02:19:11.258Z,14.05
2019-05-25T02:21:40.778Z,12.68
2019-05-25T02:24:10.343Z,12.85
2019-05-25T02:26:39.982Z,12.88
2019-05-25T02:29:09.588Z,12.00
2019-05-25T02:31:39.182Z,12.40
2019-05-25T02:34:08.734Z,12.80
2019-05-25T02:36:38.096Z,21.07
2019-05-25T02:39:08.220Z,15.90
2019-05-25T02:41:37.762Z,14.00
2019-05-25T02:44:07.460Z,12.80
2019-05-25T02:46:36.974Z,13.50
2019-05-25T02:49:06.562Z,15.05
2019-05-25T02:51:36.086Z,15.95
2019-05-25T02:54:05.578Z,15.68
2019-05-25T02:56:35.154Z,21.23
2019-05-25T02:59:05.814Z,18.77
2019-05-25T03:01:35.398Z,16.40
2019-05-25T03:04:04.930Z,14.80
2019-05-25T03:06:35.426Z,16.77
2019-05-25T03:09:07.074Z,16.95
2019-05-25T03:11:36.828Z,19.42
2019-05-25T03:14:06.380Z,20.82
2019-05-25T03:16:36.108Z,26.23
2019-05-25T03:19:11.161Z,23.20
2019-05-25T03:21:40.837Z,18.67
2019-05-25T03:24:10.549Z,16.80
2019-05-25T03:26:42.894Z,16.07
2019-05-25T03:29:12.500Z,14.90
2019-05-25T03:31:42.025Z,13.93
2019-05-25T03:34:11.719Z,13.65
2019-05-25T03:36:41.331Z,13.28
2019-05-25T03:39:11.006Z,13.90
2019-05-25T03:41:40.675Z,12.75
2019-05-25T03:44:10.335Z,12.90
2019-05-25T03:46:40.011Z,13.20
2019-05-25T03:49:09.475Z,14.60
2019-05-25T03:51:38.956Z,13.05
2019-05-25T03:54:08.430Z,12.82
2019-05-25T03:56:38.007Z,15.28
2019-05-25T03:59:07.693Z,14.13
2019-05-25T04:01:37.313Z,14.18
2019-05-25T04:04:06.833Z,14.05
2019-05-25T04:06:36.293Z,12.55
2019-05-25T04:09:06.439Z,12.85
2019-05-25T04:11:36.054Z,12.30
2019-05-25T04:14:05.661Z,13.38
2019-05-25T04:16:35.432Z,13.10
2019-05-25T04:19:05.153Z,12.13
2019-05-25T04:21:34.786Z,13.00
2019-05-25T04:24:04.905Z,12.00
2019-05-25T04:26:34.273Z,12.00
2019-05-25T04:29:04.000Z,12.20
2019-05-25T04:31:33.623Z,11.68
2019-05-25T04:34:03.203Z,13.18
2019-05-25T04:36:32.645Z,13.13
2019-05-25T04:39:02.256Z,12.20
2019-05-25T04:41:32.027Z,11.95
2019-05-25T04:44:01.667Z,11.95
2019-05-25T04:46:31.204Z,12.30
2019-05-25T04:49:00.811Z,12.03
2019-05-25T04:51:30.482Z,12.33
2019-05-25T04:54:00.118Z,11.78
2019-05-25T04:56:38.858Z,11.90
2019-05-25T04:59:00.843Z,11.60
2019-05-25T05:01:30.488Z,12.75
2019-05-25T05:04:00.104Z,12.45
2019-05-25T05:06:32.590Z,13.43
2019-05-25T05:09:02.124Z,13.20
2019-05-25T05:11:31.707Z,12.95
2019-05-25T05:14:02.372Z,13.45
2019-05-25T05:16:31.884Z,13.55
2019-05-25T05:19:02.418Z,13.90
2019-05-25T05:21:31.919Z,13.75
2019-05-25T05:24:01.289Z,13.45
2019-05-25T05:26:32.998Z,13.25
2019-05-25T05:29:02.529Z,13.95
2019-05-25T05:31:31.811Z,13.45
2019-05-25T05:34:02.443Z,12.73
2019-05-25T05:36:31.976Z,13.28
2019-05-25T05:39:02.068Z,12.55
2019-05-25T05:41:33.498Z,11.25
2019-05-25T05:44:04.826Z,13.25
2019-05-25T05:46:38.527Z,12.40
2019-05-25T05:49:08.582Z,11.88
2019-05-25T05:51:38.158Z,11.88
2019-05-25T05:54:09.252Z,10.05
2019-05-25T05:56:38.757Z,11.40
2019-05-25T05:59:08.568Z,11.30
2019-05-25T06:01:38.126Z,11.03
2019-05-25T06:04:07.591Z,11.22
2019-05-25T06:06:36.949Z,11.45
2019-05-25T06:09:08.414Z,10.98
2019-05-25T06:11:37.951Z,10.00
2019-05-25T06:14:07.806Z,10.80
2019-05-25T06:16:37.284Z,11.05
2019-05-25T06:19:07.317Z,10.55
2019-05-25T06:21:37.010Z,11.33
2019-05-25T06:24:06.549Z,11.80
2019-05-25T06:26:36.026Z,10.48
2019-05-25T06:29:05.841Z,10.23
2019-05-25T06:31:35.406Z,10.82
2019-05-25T06:34:05.022Z,11.15
2019-05-25T06:36:37.607Z,10.93
2019-05-25T06:39:08.633Z,13.88
2019-05-25T06:41:38.922Z,14.15
2019-05-25T06:44:08.490Z,11.20
2019-05-25T06:46:39.867Z,13.45
2019-05-25T06:49:09.328Z,11.90
2019-05-25T06:51:38.641Z,10.72
2019-05-25T06:54:08.362Z,11.90
2019-05-25T06:56:39.601Z,11.40
2019-05-25T06:59:09.426Z,11.35
2019-05-25T07:01:40.042Z,12.23
2019-05-25T07:04:10.687Z,10.50
2019-05-25T07:06:40.381Z,10.55
2019-05-25T07:09:10.087Z,11.80
2019-05-25T07:11:39.796Z,11.12
2019-05-25T07:14:12.267Z,11.68
2019-05-25T07:16:45.445Z,10.80
2019-05-25T07:19:15.123Z,16.97
2019-05-25T07:21:44.818Z,14.68
2019-05-25T07:24:14.482Z,37.85
2019-05-25T07:26:48.211Z,15.83
2019-05-25T07:29:17.753Z,11.60
2019-05-25T07:31:47.256Z,11.97
2019-05-25T07:34:16.741Z,11.83
2019-05-25T07:36:46.259Z,11.75
2019-05-25T07:39:15.815Z,11.90
2019-05-25T07:41:45.369Z,12.00
2019-05-25T07:44:14.955Z,11.63
2019-05-25T07:46:44.556Z,11.00
2019-05-25T07:49:14.172Z,9.40
2019-05-25T07:51:43.853Z,11.05
2019-05-25T07:54:13.711Z,11.05
2019-05-25T07:56:43.377Z,10.48
2019-05-25T07:59:12.982Z,11.20
2019-05-25T08:01:42.588Z,11.63
2019-05-25T08:04:12.314Z,11.18
2019-05-25T08:06:41.795Z,11.20
2019-05-25T08:09:11.323Z,10.05
2019-05-25T08:11:42.453Z,10.63
2019-05-25T08:14:11.902Z,9.98
2019-05-25T08:16:41.707Z,11.03
2019-05-25T08:19:11.254Z,10.72
2019-05-25T08:21:40.791Z,10.95
2019-05-25T08:24:10.324Z,9.65
2019-05-25T08:26:40.068Z,11.03
2019-05-25T08:29:09.613Z,13.05
2019-05-25T08:31:39.260Z,12.58
2019-05-25T08:34:11.930Z,10.72
2019-05-25T08:36:41.443Z,11.38
2019-05-25T08:39:11.064Z,10.90
2019-05-25T08:41:40.701Z,9.70
2019-05-25T08:44:10.258Z,9.68
2019-05-25T08:46:39.970Z,10.50
2019-05-25T08:49:10.179Z,10.18
2019-05-25T08:51:39.941Z,11.55
2019-05-25T08:54:09.556Z,10.48
2019-05-25T08:56:39.083Z,11.35
2019-05-25T08:59:08.589Z,9.75
2019-05-25T09:01:38.133Z,9.80
2019-05-25T09:04:08.980Z,9.23
2019-05-25T09:06:38.745Z,10.23
2019-05-25T09:09:08.392Z,9.60
2019-05-25T09:11:38.135Z,9.85
2019-05-25T09:14:08.310Z,10.03
2019-05-25T09:16:38.135Z,9.85
2019-05-25T09:19:07.733Z,9.90
2019-05-25T09:21:37.537Z,10.35
2019-05-25T09:24:07.048Z,8.23
2019-05-25T09:26:36.510Z,7.65
2019-05-25T09:29:05.960Z,8.98
2019-05-25T09:31:35.702Z,9.23
2019-05-25T09:34:05.276Z,8.73
2019-05-25T09:36:34.896Z,8.40
2019-05-25T09:39:07.006Z,8.13
2019-05-25T09:41:36.648Z,8.93
2019-05-25T09:44:06.666Z,7.95
2019-05-25T09:46:36.210Z,7.83
2019-05-25T09:49:05.888Z,11.73
2019-05-25T09:51:35.428Z,10.32
2019-05-25T09:54:05.511Z,7.78
2019-05-25T09:56:35.115Z,8.33
2019-05-25T09:59:19.285Z,7.45
2019-05-25T10:01:37.377Z,7.37
2019-05-25T10:04:07.427Z,8.00
2019-05-25T10:06:37.185Z,8.20
2019-05-25T10:09:06.998Z,7.90
2019-05-25T10:11:37.412Z,7.60
2019-05-25T10:14:06.982Z,8.75
2019-05-25T10:16:36.628Z,8.23
2019-05-25T10:19:06.012Z,8.60
2019-05-25T10:21:35.424Z,8.40
2019-05-25T10:24:04.873Z,7.92
2019-05-25T10:26:34.346Z,7.05
2019-05-25T10:29:04.982Z,7.37
2019-05-25T10:31:34.520Z,8.00
2019-05-25T10:34:04.634Z,7.95
2019-05-25T10:36:34.156Z,7.40
2019-05-25T10:39:05.095Z,6.87
2019-05-25T10:41:34.539Z,7.00
2019-05-25T10:44:03.993Z,6.60
2019-05-25T10:46:33.474Z,7.00
2019-05-25T10:49:03.117Z,7.35
2019-05-25T10:51:34.361Z,7.42
2019-05-25T10:54:03.757Z,8.10
2019-05-25T10:56:33.383Z,7.53
2019-05-25T10:59:02.923Z,6.87
2019-05-25T11:01:32.604Z,7.08
2019-05-25T11:04:02.259Z,8.35
2019-05-25T11:06:34.831Z,7.55
2019-05-25T11:09:04.101Z,7.30
2019-05-25T11:11:33.724Z,7.20
2019-05-25T11:14:03.317Z,7.35
2019-05-25T11:16:32.877Z,7.20
2019-05-25T11:19:02.455Z,7.47
2019-05-25T11:21:32.258Z,6.33
2019-05-25T11:24:01.887Z,7.78
2019-05-25T11:26:31.587Z,8.15
2019-05-25T11:29:01.324Z,7.90
2019-05-25T11:31:39.262Z,7.62
2019-05-25T11:34:09.153Z,9.38
2019-05-25T11:36:38.797Z,9.33
2019-05-25T11:39:08.293Z,8.70
2019-05-25T11:41:37.803Z,8.13
2019-05-25T11:44:07.494Z,8.53
2019-05-25T11:46:37.195Z,8.78
2019-05-25T11:49:21.601Z,8.05
2019-05-25T11:51:38.005Z,8.33
2019-05-25T11:54:07.449Z,8.13
2019-05-25T11:56:37.876Z,7.92
2019-05-25T11:59:07.405Z,7.53
2019-05-25T12:01:37.158Z,7.70
2019-05-25T12:04:06.614Z,7.33
2019-05-25T12:06:36.231Z,6.67
2019-05-25T12:09:07.656Z,6.35
2019-05-25T12:11:37.252Z,7.05
2019-05-25T12:14:07.302Z,6.05
2019-05-25T12:16:37.526Z,6.30
2019-05-25T12:19:07.586Z,5.80
2019-05-25T12:21:37.248Z,6.22
2019-05-25T12:24:07.597Z,5.75
2019-05-25T12:26:37.072Z,5.70
2019-05-25T12:29:06.703Z,5.20
2019-05-25T12:31:36.372Z,5.70
2019-05-25T12:34:06.620Z,5.25
2019-05-25T12:36:36.270Z,5.22
2019-05-25T12:39:07.610Z,5.78
2019-05-25T12:41:37.284Z,6.17
2019-05-25T12:44:06.691Z,6.03
2019-05-25T12:46:37.432Z,6.00
2019-05-25T12:49:07.207Z,5.70
2019-05-25T12:51:36.950Z,5.50
2019-05-25T12:54:06.565Z,5.97
2019-05-25T12:56:37.394Z,5.58
2019-05-25T12:59:06.877Z,5.40
2019-05-25T13:01:36.760Z,6.20
2019-05-25T13:04:06.642Z,19.75
2019-05-25T13:06:36.342Z,6.53
2019-05-25T13:09:07.915Z,8.10
2019-05-25T13:11:37.697Z,5.20
2019-05-25T13:14:14.504Z,5.08
2019-05-25T13:16:38.596Z,5.65
2019-05-25T13:19:08.685Z,6.08
2019-05-25T13:21:38.600Z,6.22
2019-05-25T13:24:08.320Z,6.12
2019-05-25T13:26:37.889Z,6.03
2019-05-25T13:29:08.461Z,6.50
2019-05-25T13:31:37.990Z,6.45
2019-05-25T13:34:07.470Z,5.85
2019-05-25T13:36:37.038Z,6.40
2019-05-25T13:39:07.183Z,6.58
2019-05-25T13:41:36.965Z,6.20
2019-05-25T13:44:09.850Z,6.12
2019-05-25T13:46:41.359Z,6.22
2019-05-25T13:49:11.562Z,5.47
2019-05-25T13:51:41.445Z,7.15
2019-05-25T13:54:13.301Z,6.85
2019-05-25T13:56:43.016Z,6.30
2019-05-25T13:59:12.655Z,6.25
2019-05-25T14:01:42.550Z,5.60
2019-05-25T14:04:12.138Z,5.25
2019-05-25T14:06:41.846Z,5.35
2019-05-25T14:09:15.504Z,5.78
2019-05-25T14:11:42.990Z,4.90
2019-05-25T14:14:12.621Z,4.75
2019-05-25T14:16:42.221Z,6.37
2019-05-25T14:19:12.213Z,7.00
2019-05-25T14:21:41.870Z,6.12
2019-05-25T14:24:11.455Z,6.22
2019-05-25T14:26:41.057Z,6.85
2019-05-25T14:29:10.696Z,6.37
2019-05-25T14:31:45.578Z,6.47
2019-05-25T14:34:11.374Z,5.95
2019-05-25T14:36:40.823Z,6.17
2019-05-25T14:39:10.571Z,6.37
2019-05-25T14:41:40.245Z,5.65
2019-05-25T14:44:11.549Z,5.05
2019-05-25T14:46:41.078Z,5.72
2019-05-25T14:49:10.551Z,5.25
2019-05-25T14:51:40.234Z,4.87
2019-05-25T14:54:09.758Z,5.10
2019-05-25T14:56:39.324Z,4.80
2019-05-25T14:59:08.995Z,5.20
2019-05-25T15:01:38.620Z,4.80
2019-05-25T15:04:08.258Z,4.65
2019-05-25T15:06:37.897Z,5.00
2019-05-25T15:09:08.293Z,5.03
2019-05-25T15:11:37.854Z,5.05
2019-05-25T15:14:07.523Z,4.85
2019-05-25T15:16:37.188Z,10.35
2019-05-25T15:19:06.926Z,8.03
2019-05-25T15:21:36.870Z,9.60
2019-05-25T15:24:06.750Z,5.33
2019-05-25T15:26:36.462Z,5.55
2019-05-25T15:29:07.026Z,4.75
2019-05-25T15:31:36.618Z,4.45
2019-05-25T15:34:06.244Z,6.67
2019-05-25T15:36:35.982Z,4.97
2019-05-25T15:39:07.226Z,5.58
2019-05-25T15:41:36.974Z,5.20
2019-05-25T15:44:06.529Z,5.60
2019-05-25T15:46:36.213Z,5.45
2019-05-25T15:49:05.808Z,6.65
2019-05-25T15:51:35.248Z,7.40
2019-05-25T15:54:09.765Z,5.33
2019-05-25T15:56:36.226Z,4.37
2019-05-25T15:59:05.686Z,5.80
2019-05-25T16:01:35.297Z,5.58
2019-05-25T16:04:04.932Z,5.65
2019-05-25T16:06:34.626Z,5.55
2019-05-25T16:09:07.133Z,5.65
2019-05-25T16:11:36.751Z,5.53
2019-05-25T16:14:07.782Z,6.28
2019-05-25T16:16:37.589Z,5.97
2019-05-25T16:19:07.376Z,6.17
2019-05-25T16:21:36.865Z,6.45
2019-05-25T16:24:08.213Z,7.35
2019-05-25T16:26:46.187Z,6.97
2019-05-25T16:29:08.895Z,6.72
2019-05-25T16:31:38.446Z,7.87
2019-05-25T16:34:08.179Z,8.43
2019-05-25T16:36:37.638Z,8.53
2019-05-25T16:39:08.119Z,9.33
2019-05-25T16:41:37.675Z,8.33
2019-05-25T16:44:07.708Z,8.10
2019-05-25T16:46:37.326Z,8.45
2019-05-25T16:49:06.672Z,9.43
2019-05-25T16:51:36.143Z,8.58
2019-05-25T16:54:06.207Z,8.03
2019-05-25T16:56:35.712Z,8.50
2019-05-25T16:59:06.984Z,9.40
2019-05-25T17:01:47.726Z,7.60
2019-05-25T17:04:07.891Z,7.53
2019-05-25T17:06:37.543Z,6.83
2019-05-25T17:09:07.566Z,6.37
2019-05-25T17:11:37.207Z,9.83
2019-05-25T17:14:06.747Z,8.55
2019-05-25T17:16:36.362Z,6.62
2019-05-25T17:19:05.985Z,9.20
2019-05-25T17:21:35.655Z,9.50
2019-05-25T17:24:05.214Z,10.13
2019-05-25T17:26:34.789Z,10.28
2019-05-25T17:29:04.440Z,11.38
2019-05-25T17:31:34.060Z,12.07
2019-05-25T17:34:03.656Z,10.72
2019-05-25T17:36:33.238Z,11.05
2019-05-25T17:39:02.875Z,10.10
2019-05-25T17:41:32.766Z,8.55
2019-05-25T17:44:02.405Z,8.10
2019-05-25T17:46:32.271Z,7.00
2019-05-25T17:49:01.814Z,6.40
2019-05-25T17:51:32.273Z,6.83
2019-05-25T17:54:01.829Z,6.60
2019-05-25T17:56:33.094Z,7.25
2019-05-25T17:59:02.678Z,7.08
2019-05-25T18:01:32.387Z,7.60
2019-05-25T18:04:07.167Z,7.55
2019-05-25T18:06:33.478Z,8.40
2019-05-25T18:09:03.194Z,8.50
2019-05-25T18:11:32.831Z,9.18
2019-05-25T18:14:02.429Z,8.03
2019-05-25T18:16:32.035Z,9.30
2019-05-25T18:19:01.681Z,8.48
2019-05-25T18:21:31.230Z,8.10
2019-05-25T18:24:00.945Z,8.00
2019-05-25T18:26:30.784Z,7.97
2019-05-25T18:29:00.424Z,8.90
2019-05-25T18:31:30.133Z,8.73
2019-05-25T18:33:59.778Z,8.95
2019-05-25T18:36:30.135Z,8.65
2019-05-25T18:38:59.845Z,7.85
2019-05-25T18:41:29.656Z,9.65
2019-05-25T18:43:59.290Z,13.62
2019-05-25T18:46:28.994Z,10.03
2019-05-25T18:48:58.549Z,9.43
2019-05-25T18:51:28.188Z,10.13
2019-05-25T18:53:58.095Z,10.00
2019-05-25T18:56:28.794Z,10.65
2019-05-25T18:58:58.429Z,12.47
2019-05-25T19:01:28.116Z,11.68
2019-05-25T19:03:57.709Z,12.65
2019-05-25T19:06:27.382Z,11.40
2019-05-25T19:08:57.384Z,12.43
2019-05-25T19:11:27.499Z,12.23
2019-05-25T19:13:57.415Z,12.10
2019-05-25T19:16:27.115Z,12.65
2019-05-25T19:18:57.078Z,13.20
2019-05-25T19:21:27.161Z,13.30
2019-05-25T19:23:56.834Z,22.37
2019-05-25T19:26:26.430Z,19.95
2019-05-25T19:28:57.822Z,16.70
2019-05-25T19:31:27.841Z,18.92
2019-05-25T19:33:58.781Z,16.97
2019-05-25T19:36:28.352Z,16.65
2019-05-25T19:38:57.966Z,13.62
2019-05-25T19:41:27.875Z,14.13
2019-05-25T19:43:57.606Z,12.73
2019-05-25T19:46:27.297Z,16.05
2019-05-25T19:48:57.009Z,16.50
2019-05-25T19:51:26.636Z,17.30
2019-05-25T19:53:56.590Z,16.52
2019-05-25T19:56:26.292Z,14.40
2019-05-25T19:58:56.955Z,14.75
2019-05-25T20:01:26.823Z,14.70
2019-05-25T20:03:57.519Z,15.58
2019-05-25T20:06:28.369Z,15.30
2019-05-25T20:08:58.518Z,16.97
2019-05-25T20:11:28.053Z,15.72
2019-05-25T20:13:57.825Z,15.05
2019-05-25T20:16:27.389Z,14.30
2019-05-25T20:18:57.253Z,13.95
2019-05-25T20:21:26.977Z,13.83
2019-05-25T20:23:56.787Z,14.28
2019-05-25T20:26:26.355Z,15.05
2019-05-25T20:28:55.974Z,13.85
2019-05-25T20:31:25.745Z,12.18
2019-05-25T20:33:55.374Z,11.48
2019-05-25T20:36:25.108Z,11.23
2019-05-25T20:38:54.988Z,9.93
2019-05-25T20:41:24.755Z,10.75
2019-05-25T20:43:54.435Z,10.50
2019-05-25T20:46:24.480Z,13.25
2019-05-25T20:48:54.259Z,11.73
2019-05-25T20:51:23.852Z,10.85
2019-05-25T20:53:53.735Z,10.48
2019-05-25T20:56:23.416Z,10.68
2019-05-25T20:58:53.126Z,10.75
2019-05-25T21:01:22.696Z,10.53
2019-05-25T21:03:54.335Z,10.35
2019-05-25T21:06:31.374Z,10.65
2019-05-25T21:09:02.069Z,10.15
2019-05-25T21:11:32.145Z,11.33
2019-05-25T21:14:02.040Z,11.08
2019-05-25T21:16:31.945Z,12.55
2019-05-25T21:19:03.056Z,11.40
2019-05-25T21:21:33.209Z,11.63
2019-05-25T21:24:02.810Z,12.05
2019-05-25T21:26:32.430Z,12.30
2019-05-25T21:29:02.072Z,11.38
2019-05-25T21:31:31.649Z,11.33
2019-05-25T21:34:01.549Z,11.28
2019-05-25T21:36:31.268Z,10.48
2019-05-25T21:39:01.257Z,10.72
2019-05-25T21:41:32.611Z,11.12
2019-05-25T21:44:02.145Z,11.18
2019-05-25T21:46:32.952Z,11.78
2019-05-25T21:49:02.671Z,10.45
2019-05-25T21:51:32.379Z,10.78
2019-05-25T21:54:02.201Z,11.33
2019-05-25T21:56:32.126Z,11.18
2019-05-25T21:59:01.957Z,11.33
2019-05-25T22:01:31.957Z,10.23
2019-05-25T22:04:01.624Z,9.88
2019-05-25T22:06:31.968Z,10.70
2019-05-25T22:09:05.389Z,11.12
2019-05-25T22:11:36.103Z,11.05
2019-05-25T22:14:05.940Z,11.63
2019-05-25T22:16:36.634Z,11.53
2019-05-25T22:19:06.269Z,12.78
2019-05-25T22:21:35.863Z,12.58
2019-05-25T22:24:05.735Z,12.35
2019-05-25T22:26:35.296Z,12.85
2019-05-25T22:29:05.215Z,12.50
2019-05-25T22:31:35.509Z,12.43
2019-05-25T22:34:05.455Z,12.55
2019-05-25T22:36:40.237Z,12.58
2019-05-25T22:39:08.071Z,12.45
2019-05-25T22:41:37.731Z,12.03
2019-05-25T22:44:07.321Z,11.85
2019-05-25T22:46:36.927Z,11.25
2019-05-25T22:49:06.690Z,11.18
2019-05-25T22:51:36.702Z,10.93
2019-05-25T22:54:06.376Z,11.50
2019-05-25T22:56:36.097Z,10.35
2019-05-25T22:59:06.553Z,10.10
2019-05-25T23:01:36.454Z,9.73
2019-05-25T23:04:05.994Z,9.43
2019-05-25T23:06:35.897Z,9.50
2019-05-25T23:09:07.616Z,10.50
2019-05-25T23:11:37.473Z,9.43
2019-05-25T23:14:09.807Z,9.18
2019-05-25T23:16:38.740Z,9.00
2019-05-25T23:19:08.442Z,9.43
2019-05-25T23:21:38.154Z,9.00
2019-05-25T23:24:07.826Z,8.73
2019-05-25T23:26:37.412Z,8.93
2019-05-25T23:29:06.961Z,8.90
2019-05-25T23:31:36.595Z,8.63
2019-05-25T23:34:06.180Z,8.83
2019-05-25T23:36:35.859Z,8.78
2019-05-25T23:39:06.800Z,8.80
2019-05-25T23:41:36.315Z,8.60
2019-05-25T23:44:06.039Z,8.25
2019-05-25T23:46:35.548Z,7.85
2019-05-25T23:49:05.259Z,8.03
2019-05-25T23:51:34.952Z,7.50
2019-05-25T23:54:04.842Z,7.85
2019-05-25T23:56:34.595Z,8.25
2019-05-25T23:59:04.151Z,7.65
